Aviation Digital Data Service (ADDS)

Output produced by METARs form (2004 UTC 21 September 2021)
found at http://www.aviationweather.gov/metar/data/
 
KIAH 211740Z 2118/2224 25007KT P6SM SCT030 
     FM212000 27005KT P6SM VCTS SCT040CB SCT250 
     FM212300 34010KT P6SM VCSH SCT050 BKN200 
     FM220300 01009KT P6SM SCT100 
     FM221200 01010KT P6SM FEW250